Time;durP1;ratioP1;P1;durP2;ratioP2;P2;SDS_P1;SDS_P2;PMS_P1;PMS_P2;Temp;Humidity;BMP_temperature;BMP_pressure;BME280_temperature;BME280_humidity;BME280_pressure;Samples;Min_cycle;Max_cycle;Signal;HPM_P1;HPM_P2
2021/06/18 00:00:13;;;;;;;18.70;17.10;;;23.40;91.40;;;;;;6155755;23;20452;-77
2021/06/18 00:02:43;;;;;;;18.33;16.83;;;23.40;91.50;;;;;;6153876;23;20869;-76
2021/06/18 00:05:13;;;;;;;20.23;18.40;;;23.40;91.70;;;;;;6154452;23;20499;-76
2021/06/18 00:07:43;;;;;;;20.30;18.50;;;23.30;91.70;;;;;;6155830;23;20831;-76
2021/06/18 00:10:14;;;;;;;22.13;20.23;;;23.30;91.80;;;;;;6155846;23;20440;-76
2021/06/18 00:12:45;;;;;;;20.40;18.63;;;23.30;91.90;;;;;;6157884;23;20492;-76
2021/06/18 00:15:14;;;;;;;19.90;17.97;;;23.20;92.00;;;;;;6156127;23;20732;-76
2021/06/18 00:17:42;;;;;;;21.30;19.33;;;23.20;92.10;;;;;;6157930;23;20463;-76
2021/06/18 00:20:14;;;;;;;19.63;17.90;;;23.20;92.20;;;;;;6167721;23;20451;-76
2021/06/18 00:22:44;;;;;;;19.07;17.33;;;23.20;92.40;;;;;;6155956;23;20412;-76
2021/06/18 00:25:14;;;;;;;21.67;19.83;;;23.10;92.40;;;;;;6155867;23;20448;-76
2021/06/18 00:27:43;;;;;;;22.07;20.07;;;23.10;92.50;;;;;;6155840;23;20448;-76
2021/06/18 00:30:12;;;;;;;20.27;18.40;;;23.10;92.60;;;;;;6156031;23;20486;-76
2021/06/18 00:32:41;;;;;;;21.20;19.50;;;23.10;92.70;;;;;;6156205;23;20495;-76
2021/06/18 00:35:10;;;;;;;21.20;19.40;;;23.10;92.80;;;;;;6155761;23;20508;-76
2021/06/18 00:37:38;;;;;;;22.60;20.58;;;23.10;92.90;;;;;;6154922;23;20496;-76
2021/06/18 00:40:08;;;;;;;22.23;20.33;;;23.10;93.50;;;;;;6167203;23;20166;-76
2021/06/18 00:42:41;;;;;;;22.00;20.03;;;23.10;93.40;;;;;;6157137;23;20468;-76
2021/06/18 00:45:10;;;;;;;23.47;21.47;;;23.10;93.40;;;;;;6155733;23;20496;-76
2021/06/18 00:47:47;;;;;;;22.47;20.37;;;23.00;93.40;;;;;;6157001;23;20436;-76
2021/06/18 00:50:16;;;;;;;23.20;21.23;;;23.00;93.50;;;;;;6156517;23;20863;-76
2021/06/18 00:52:46;;;;;;;23.50;21.50;;;23.00;93.60;;;;;;6167469;23;20403;-76
2021/06/18 00:55:15;;;;;;;22.47;20.60;;;23.00;93.60;;;;;;6167012;23;20467;-76
2021/06/18 00:57:45;;;;;;;23.97;21.90;;;22.90;94.00;;;;;;6155384;23;20483;-76
2021/06/18 01:00:15;;;;;;;22.43;20.33;;;22.90;93.80;;;;;;6155491;23;20420;-76
2021/06/18 01:02:44;;;;;;;21.70;19.90;;;22.90;93.90;;;;;;6155394;23;20413;-76
2021/06/18 01:05:15;;;;;;;24.20;22.00;;;22.90;93.90;;;;;;6166498;23;20459;-76
2021/06/18 01:07:50;;;;;;;25.90;23.80;;;22.90;94.00;;;;;;6155162;23;20448;-76
2021/06/18 01:10:28;;;;;;;23.20;21.00;;;22.80;94.10;;;;;;6155332;23;20408;-75
2021/06/18 01:13:09;;;;;;;24.37;22.23;;;22.80;94.20;;;;;;6155211;23;20416;-76
2021/06/18 01:15:50;;;;;;;25.97;23.50;;;22.80;94.30;;;;;;6155311;23;20489;-76
2021/06/18 01:18:24;;;;;;;26.97;24.67;;;22.70;94.30;;;;;;6155148;23;20501;-76
2021/06/18 01:21:11;;;;;;;23.70;21.47;;;22.70;94.50;;;;;;6155192;23;20419;-76
2021/06/18 01:24:03;;;;;;;36.67;25.03;;;22.70;94.60;;;;;;6167167;23;20385;-76
2021/06/18 01:27:04;;;;;;;26.00;23.70;;;22.70;94.70;;;;;;6131933;23;20420;-76
2021/06/18 01:29:37;;;;;;;23.58;21.60;;;22.70;94.80;;;;;;6147845;23;20441;-76
2021/06/18 01:32:09;;;;;;;23.97;21.87;;;22.60;94.90;;;;;;6154793;23;20509;-76
2021/06/18 01:34:39;;;;;;;25.70;23.50;;;22.60;95.00;;;;;;6155114;23;20449;-76
2021/06/18 01:37:11;;;;;;;28.73;25.93;;;22.60;95.10;;;;;;6166564;23;20427;-76
2021/06/18 01:39:41;;;;;;;30.30;27.60;;;22.60;95.30;;;;;;6155032;23;20467;-76
2021/06/18 01:42:11;;;;;;;28.73;26.00;;;22.50;95.30;;;;;;6167165;23;20872;-76
2021/06/18 01:44:41;;;;;;;29.60;26.87;;;22.50;95.50;;;;;;6155139;23;20412;-76
2021/06/18 01:47:11;;;;;;;26.50;24.07;;;22.50;95.70;;;;;;6166775;23;20879;-76
2021/06/18 01:49:41;;;;;;;29.53;26.80;;;22.40;95.80;;;;;;6154886;23;20493;-76
2021/06/18 01:52:11;;;;;;;29.57;26.97;;;22.40;95.90;;;;;;6154986;23;20825;-76
2021/06/18 01:54:42;;;;;;;27.83;25.33;;;22.40;96.10;;;;;;6167092;23;20851;-76
2021/06/18 01:57:12;;;;;;;27.20;24.70;;;22.40;96.20;;;;;;6154845;23;20427;-76
2021/06/18 01:59:43;;;;;;;26.33;24.03;;;22.30;96.20;;;;;;6154943;23;20456;-76
2021/06/18 02:02:12;;;;;;;26.97;24.57;;;22.30;96.30;;;;;;6166501;23;20438;-76
2021/06/18 02:04:45;;;;;;;29.90;27.13;;;22.30;96.40;;;;;;6166544;23;20397;-76
2021/06/18 02:07:15;;;;;;;31.47;28.90;;;22.30;96.50;;;;;;6154902;23;20487;-76
2021/06/18 02:09:46;;;;;;;28.90;26.30;;;22.30;96.60;;;;;;6154921;23;20436;-75
2021/06/18 02:12:16;;;;;;;26.83;24.57;;;22.20;96.70;;;;;;6155023;23;20534;-76
2021/06/18 02:14:49;;;;;;;27.33;25.17;;;22.20;96.80;;;;;;6155709;23;20444;-76
2021/06/18 02:17:19;;;;;;;27.60;25.10;;;22.20;97.00;;;;;;6154962;23;20499;-76
2021/06/18 02:19:49;;;;;;;32.80;29.80;;;22.20;97.10;;;;;;6156768;23;20427;-75
2021/06/18 02:22:18;;;;;;;29.77;26.93;;;22.10;97.10;;;;;;6156690;23;20412;-76
2021/06/18 02:24:50;;;;;;;32.38;29.58;;;22.10;97.20;;;;;;6164809;23;20397;-76
2021/06/18 02:27:19;;;;;;;26.97;24.73;;;22.20;98.50;;;;;;6156792;23;20183;-76
2021/06/18 02:29:49;;;;;;;30.13;27.53;;;22.20;98.10;;;;;;6154753;23;20511;-76
2021/06/18 02:32:18;;;;;;;31.80;28.93;;;22.10;98.10;;;;;;6166158;23;20440;-76
2021/06/18 02:34:49;;;;;;;31.40;28.60;;;22.10;98.20;;;;;;6166531;23;20396;-76
2021/06/18 02:37:17;;;;;;;32.27;29.43;;;22.10;98.30;;;;;;6166442;23;20401;-76
2021/06/18 02:39:47;;;;;;;30.33;27.63;;;22.00;98.40;;;;;;6166001;23;20734;-76
2021/06/18 02:42:16;;;;;;;30.00;27.07;;;22.00;98.50;;;;;;6154993;23;20494;-76
2021/06/18 02:44:44;;;;;;;29.27;26.87;;;21.90;98.60;;;;;;6154607;23;20476;-76
2021/06/18 02:47:19;;;;;;;32.27;29.27;;;21.90;98.70;;;;;;6154514;23;20513;-76
2021/06/18 02:49:54;;;;;;;28.23;25.60;;;21.90;98.90;;;;;;6154449;23;20494;-76
2021/06/18 02:52:29;;;;;;;30.77;27.87;;;21.80;98.90;;;;;;6166619;23;20415;-76
2021/06/18 02:55:09;;;;;;;32.53;29.43;;;21.80;99.10;;;;;;6166335;23;20392;-76
2021/06/18 02:57:46;;;;;;;32.53;29.30;;;21.80;99.20;;;;;;6155583;23;20410;-76
2021/06/18 03:00:15;;;;;;;30.47;27.77;;;21.80;99.30;;;;;;6166165;23;20884;-76
2021/06/18 03:02:50;;;;;;;30.60;28.00;;;21.80;99.30;;;;;;6154674;23;20502;-76
2021/06/18 03:05:22;;;;;;;33.70;30.20;;;21.80;99.40;;;;;;6154922;23;20505;-76
2021/06/18 03:07:57;;;;;;;32.07;29.13;;;21.70;99.50;;;;;;6154437;23;20478;-76
2021/06/18 03:10:27;;;;;;;34.53;30.93;;;21.70;99.60;;;;;;6154657;23;20411;-76
2021/06/18 03:13:02;;;;;;;29.23;26.63;;;21.70;99.70;;;;;;6154465;23;20878;-76
2021/06/18 03:15:35;;;;;;;31.77;28.73;;;21.70;99.80;;;;;;6156395;23;20394;-76
2021/06/18 03:18:05;;;;;;;35.72;32.63;;;21.70;99.90;;;;;;6164601;23;20463;-76
2021/06/18 03:20:36;;;;;;;38.90;34.87;;;21.80;99.90;;;;;;6154353;23;20556;-76
2021/06/18 03:23:09;;;;;;;39.83;36.20;;;21.70;99.90;;;;;;6166123;23;20388;-76
2021/06/18 03:25:38;;;;;;;35.67;32.67;;;21.70;99.90;;;;;;6166361;23;20388;-76
2021/06/18 03:28:07;;;;;;;38.40;34.80;;;21.60;99.90;;;;;;6154322;23;20454;-76
2021/06/18 03:30:36;;;;;;;36.13;31.93;;;21.60;99.90;;;;;;6165647;23;20452;-76
2021/06/18 03:33:08;;;;;;;37.80;34.53;;;21.60;99.90;;;;;;6165614;23;20403;-76
2021/06/18 03:35:37;;;;;;;39.10;35.53;;;21.50;99.90;;;;;;6154667;23;20419;-76
2021/06/18 03:38:06;;;;;;;34.90;31.60;;;21.50;99.90;;;;;;6154090;23;20432;-77
2021/06/18 03:40:38;;;;;;;35.33;32.33;;;21.40;99.90;;;;;;6153746;23;20903;-76
2021/06/18 03:43:07;;;;;;;35.63;32.33;;;21.40;99.90;;;;;;6165893;23;20760;-76
2021/06/18 03:45:37;;;;;;;36.53;33.23;;;21.40;99.90;;;;;;6166071;23;20736;-76
2021/06/18 03:48:09;;;;;;;38.20;34.80;;;21.40;99.90;;;;;;6153767;23;20949;-76
2021/06/18 03:50:38;;;;;;;38.07;34.67;;;21.30;99.90;;;;;;6155647;23;20410;-77
2021/06/18 03:53:08;;;;;;;37.83;34.17;;;21.30;99.90;;;;;;6155945;23;20442;-76
2021/06/18 03:55:36;;;;;;;38.30;34.87;;;21.30;99.90;;;;;;6153592;23;20430;-76
2021/06/18 03:58:05;;;;;;;38.57;34.87;;;21.30;99.90;;;;;;6154084;23;20757;-76
2021/06/18 04:00:36;;;;;;;38.70;35.10;;;21.30;99.90;;;;;;6165707;23;20487;-77
2021/06/18 04:03:08;;;;;;;39.60;35.80;;;21.30;99.90;;;;;;6156141;23;20424;-76
2021/06/18 04:05:38;;;;;;;39.57;35.87;;;21.30;99.90;;;;;;6154317;23;20484;-76
2021/06/18 04:08:08;;;;;;;41.07;37.23;;;21.30;99.90;;;;;;6154145;23;20492;-77
2021/06/18 04:10:38;;;;;;;43.35;39.28;;;21.30;99.90;;;;;;6165432;23;20411;-76
2021/06/18 04:13:08;;;;;;;42.93;38.87;;;21.30;99.90;;;;;;6154451;23;20168;-76
2021/06/18 04:15:36;;;;;;;44.83;40.50;;;21.30;99.90;;;;;;6165517;23;20490;-76
2021/06/18 04:18:06;;;;;;;45.77;41.50;;;21.30;99.90;;;;;;6165613;23;20482;-77
2021/06/18 04:20:35;;;;;;;47.40;43.13;;;21.30;99.90;;;;;;6154112;23;20454;-76
2021/06/18 04:23:04;;;;;;;47.87;43.13;;;21.30;99.90;;;;;;6154096;23;20968;-77
2021/06/18 04:25:32;;;;;;;45.50;41.20;;;21.30;99.90;;;;;;6165594;23;20495;-76
2021/06/18 04:28:01;;;;;;;49.27;44.63;;;21.30;99.90;;;;;;6154076;23;20471;-76
2021/06/18 04:30:30;;;;;;;50.57;45.70;;;21.30;99.90;;;;;;6154000;23;20443;-77
2021/06/18 04:33:00;;;;;;;51.73;46.40;;;21.30;99.90;;;;;;6156019;23;20399;-76
2021/06/18 04:35:30;;;;;;;51.77;46.90;;;21.30;99.90;;;;;;6153989;23;20482;-77
2021/06/18 04:37:59;;;;;;;52.00;47.00;;;21.30;99.90;;;;;;6165442;23;20429;-76
2021/06/18 04:40:28;;;;;;;56.13;50.50;;;21.30;99.90;;;;;;6154134;23;20423;-77
2021/06/18 04:42:56;;;;;;;51.50;46.47;;;21.30;99.90;;;;;;6165581;23;20495;-76
2021/06/18 04:45:24;;;;;;;55.80;50.37;;;21.40;99.90;;;;;;6154096;23;20428;-77
2021/06/18 04:47:54;;;;;;;52.60;47.70;;;21.30;99.90;;;;;;6154041;23;20436;-76
2021/06/18 04:50:22;;;;;;;57.07;51.17;;;21.40;99.90;;;;;;6165753;23;20984;-76
2021/06/18 04:52:52;;;;;;;59.33;53.73;;;21.40;99.90;;;;;;6157432;23;20438;-76
2021/06/18 04:55:21;;;;;;;67.37;61.13;;;21.40;99.90;;;;;;6154150;23;20428;-76
2021/06/18 04:57:49;;;;;;;58.97;52.77;;;21.50;99.90;;;;;;6155680;23;20855;-76
2021/06/18 05:00:23;;;;;;;62.77;56.37;;;21.50;99.90;;;;;;6166962;23;20428;-77
2021/06/18 05:02:51;;;;;;;63.40;57.20;;;21.60;99.90;;;;;;6167199;23;20383;-76
2021/06/18 05:05:20;;;;;;;61.87;55.80;;;21.50;99.90;;;;;;6153869;23;20426;-77
2021/06/18 05:07:53;;;;;;;60.73;54.97;;;21.60;99.90;;;;;;6164331;23;20420;-77
2021/06/18 05:10:23;;;;;;;62.43;56.20;;;21.60;99.90;;;;;;6155028;23;20486;-76
2021/06/18 05:12:52;;;;;;;61.47;55.47;;;21.50;99.90;;;;;;6167184;23;20478;-76
2021/06/18 05:15:21;;;;;;;64.00;58.10;;;21.60;99.90;;;;;;6155657;23;20435;-76
2021/06/18 05:17:49;;;;;;;65.63;59.23;;;21.60;99.90;;;;;;6155523;23;20929;-76
2021/06/18 05:20:17;;;;;;;62.63;56.27;;;21.60;99.90;;;;;;6167085;23;20480;-76
2021/06/18 05:22:46;;;;;;;59.83;54.17;;;21.60;99.90;;;;;;6157405;23;20925;-76
2021/06/18 05:25:16;;;;;;;61.77;56.10;;;21.70;99.90;;;;;;6166933;23;20415;-76
2021/06/18 05:27:44;;;;;;;66.30;60.00;;;21.70;99.90;;;;;;6167224;23;20897;-77
2021/06/18 05:30:14;;;;;;;66.47;59.60;;;21.80;99.90;;;;;;6155628;23;20850;-76
2021/06/18 05:32:44;;;;;;;65.20;58.50;;;21.90;99.90;;;;;;6155909;23;20529;-76
2021/06/18 05:35:13;;;;;;;65.63;59.23;;;21.90;99.90;;;;;;6167524;23;20871;-76
2021/06/18 05:37:42;;;;;;;64.60;58.37;;;22.00;99.90;;;;;;6167062;23;20915;-77
2021/06/18 05:40:11;;;;;;;64.40;57.80;;;22.20;99.90;;;;;;6155303;23;20733;-77
2021/06/18 05:42:44;;;;;;;61.67;55.67;;;22.30;99.90;;;;;;6155364;23;20424;-76
2021/06/18 05:45:13;;;;;;;62.40;56.00;;;22.40;99.90;;;;;;6155403;23;20412;-77
2021/06/18 05:47:43;;;;;;;60.70;54.97;;;22.60;99.90;;;;;;6155338;23;20443;-76
2021/06/18 05:50:13;;;;;;;66.67;60.10;;;22.70;99.90;;;;;;6166090;23;20441;-76
2021/06/18 05:52:42;;;;;;;60.40;54.70;;;22.90;99.90;;;;;;6155482;23;20472;-77
2021/06/18 05:55:11;;;;;;;63.97;57.30;;;23.10;99.90;;;;;;6155097;23;20444;-77
2021/06/18 05:57:42;;;;;;;64.90;58.53;;;23.20;99.90;;;;;;6166956;23;20460;-77
2021/06/18 06:00:11;;;;;;;62.03;56.20;;;23.40;99.90;;;;;;6155193;23;20413;-76
2021/06/18 06:02:40;;;;;;;61.47;55.27;;;23.50;99.90;;;;;;6154838;23;20966;-77
2021/06/18 06:05:09;;;;;;;63.40;57.03;;;23.70;99.90;;;;;;6155256;23;20511;-76
2021/06/18 06:07:37;;;;;;;62.87;56.70;;;23.80;99.90;;;;;;6166857;23;20393;-77
2021/06/18 06:10:06;;;;;;;62.27;55.97;;;24.00;99.90;;;;;;6154968;23;20523;-77
2021/06/18 06:12:35;;;;;;;64.83;58.40;;;24.20;99.90;;;;;;6167225;23;20451;-77
2021/06/18 06:15:06;;;;;;;67.70;61.10;;;24.30;99.90;;;;;;6166831;23;20405;-77
2021/06/18 06:17:34;;;;;;;67.97;60.97;;;24.40;99.90;;;;;;6166985;23;20401;-77
2021/06/18 06:20:02;;;;;;;67.20;60.83;;;24.50;99.90;;;;;;6167146;23;20495;-77
2021/06/18 06:22:30;;;;;;;62.47;56.20;;;24.70;99.90;;;;;;6155068;23;20995;-77
2021/06/18 06:24:59;;;;;;;59.60;53.70;;;24.80;99.90;;;;;;6166735;23;20487;-78
2021/06/18 06:27:27;;;;;;;60.73;54.93;;;24.90;99.90;;;;;;6156700;23;20413;-77
2021/06/18 06:29:57;;;;;;;61.97;56.10;;;25.00;99.90;;;;;;6154790;23;20444;-77
2021/06/18 06:32:27;;;;;;;64.63;58.63;;;25.20;99.90;;;;;;6166675;23;20444;-77
2021/06/18 06:34:57;;;;;;;62.83;56.83;;;25.40;99.90;;;;;;6154806;23;20451;-77
2021/06/18 06:37:26;;;;;;;62.53;56.47;;;25.50;99.90;;;;;;6154730;23;20437;-78
2021/06/18 06:39:54;;;;;;;61.50;55.30;;;25.60;99.90;;;;;;6154846;23;20472;-77
2021/06/18 06:42:22;;;;;;;65.40;59.00;;;25.80;99.90;;;;;;6155005;23;20412;-77
2021/06/18 06:44:51;;;;;;;66.80;60.42;;;25.90;99.90;;;;;;6153909;23;20545;-77
2021/06/18 06:47:19;;;;;;;61.97;56.40;;;26.10;99.90;;;;;;6154756;23;20170;-77
2021/06/18 06:49:49;;;;;;;60.37;54.67;;;26.20;99.90;;;;;;6154540;23;20421;-77
2021/06/18 06:52:19;;;;;;;50.30;45.43;;;26.40;99.90;;;;;;6166837;23;20418;-77
2021/06/18 06:54:47;;;;;;;59.00;53.30;;;26.50;99.90;;;;;;6155702;23;20413;-77
2021/06/18 06:57:17;;;;;;;57.70;52.15;;;26.60;99.90;;;;;;6154447;23;20497;-77
2021/06/18 06:59:46;;;;;;;57.27;51.83;;;26.70;99.90;;;;;;6154519;23;20284;-77
2021/06/18 07:02:14;;;;;;;56.13;50.93;;;26.70;99.90;;;;;;6166421;23;20405;-77
2021/06/18 07:04:42;;;;;;;55.53;50.60;;;26.80;99.90;;;;;;6166680;23;20448;-78
2021/06/18 07:07:13;;;;;;;54.17;49.20;;;26.80;99.90;;;;;;6154664;23;20752;-77
2021/06/18 07:09:41;;;;;;;50.13;45.33;;;26.90;99.90;;;;;;6154763;23;20467;-78
2021/06/18 07:12:10;;;;;;;56.67;51.30;;;27.00;99.90;;;;;;6165948;23;20405;-77
2021/06/18 07:14:39;;;;;;;50.70;46.03;;;27.20;99.90;;;;;;6154466;23;20416;-77
2021/06/18 07:17:09;;;;;;;48.43;43.93;;;27.30;99.80;;;;;;6154600;23;20440;-78
2021/06/18 07:19:37;;;;;;;48.63;44.13;;;27.40;99.60;;;;;;6154401;23;20449;-77
2021/06/18 07:22:06;;;;;;;48.07;43.63;;;27.60;99.40;;;;;;6154576;23;20424;-77
2021/06/18 07:24:36;;;;;;;43.20;39.40;;;27.70;99.20;;;;;;6154586;23;20503;-78
2021/06/18 07:27:04;;;;;;;40.97;37.03;;;27.80;98.90;;;;;;6154414;23;20504;-77
2021/06/18 07:29:33;;;;;;;44.63;40.50;;;27.90;98.80;;;;;;6154164;23;20447;-78
2021/06/18 07:32:01;;;;;;;44.30;40.30;;;27.90;98.50;;;;;;6154258;23;20503;-77
2021/06/18 07:34:29;;;;;;;36.63;33.40;;;28.00;98.50;;;;;;6166026;23;20397;-78
2021/06/18 07:36:57;;;;;;;40.90;36.90;;;28.20;98.40;;;;;;6153579;23;20456;-77
2021/06/18 07:39:46;;;;;;;40.03;36.70;;;28.40;97.60;;;;;;6154252;23;20213;-77
2021/06/18 07:42:35;;;;;;;42.37;38.27;;;28.50;97.40;;;;;;6154370;23;20413;-77
2021/06/18 07:45:03;;;;;;;45.13;41.00;;;28.50;97.10;;;;;;6154178;23;20496;-78
2021/06/18 07:47:31;;;;;;;40.30;36.50;;;28.50;97.10;;;;;;6154105;23;20507;-78
2021/06/18 07:50:00;;;;;;;43.15;39.33;;;28.50;97.00;;;;;;6164881;23;20396;-78
2021/06/18 07:52:28;;;;;;;39.23;36.00;;;28.60;96.70;;;;;;6154001;23;20201;-78
2021/06/18 07:54:59;;;;;;;38.30;34.63;;;28.60;96.50;;;;;;6164932;23;20396;-77
2021/06/18 07:57:28;;;;;;;38.60;35.30;;;28.60;96.40;;;;;;6165589;23;20468;-78
2021/06/18 07:59:56;;;;;;;37.80;34.43;;;28.60;96.50;;;;;;6154181;23;20903;-77
2021/06/18 08:02:24;;;;;;;38.63;35.03;;;28.60;96.40;;;;;;6154209;23;20505;-77
2021/06/18 08:04:53;;;;;;;38.80;35.17;;;28.60;96.30;;;;;;6154186;23;20420;-77
2021/06/18 08:07:23;;;;;;;38.17;34.90;;;28.60;96.20;;;;;;6154797;23;20736;-77
2021/06/18 08:09:52;;;;;;;42.00;38.40;;;28.60;96.20;;;;;;6166144;23;20428;-77
2021/06/18 08:12:23;;;;;;;43.50;39.70;;;28.60;96.20;;;;;;6154248;23;20441;-77
2021/06/18 08:14:51;;;;;;;41.57;37.87;;;28.60;96.10;;;;;;6154785;23;20448;-78
2021/06/18 08:17:20;;;;;;;42.27;38.47;;;28.70;96.20;;;;;;6154039;23;20504;-78
2021/06/18 08:19:48;;;;;;;40.97;37.37;;;28.70;96.10;;;;;;6154063;23;20424;-78
2021/06/18 08:22:16;;;;;;;40.67;37.27;;;28.70;96.20;;;;;;6153975;23;20417;-77
2021/06/18 08:24:45;;;;;;;39.37;36.20;;;28.70;96.10;;;;;;6154000;23;20459;-77
2021/06/18 08:27:13;;;;;;;40.57;37.03;;;28.80;96.00;;;;;;6166687;23;20413;-77
2021/06/18 08:29:43;;;;;;;36.15;33.25;;;28.70;95.80;;;;;;6154625;23;20892;-77
2021/06/18 08:32:11;;;;;;;38.60;35.20;;;28.90;95.60;;;;;;6156118;23;20200;-77
2021/06/18 08:34:39;;;;;;;41.83;38.07;;;28.90;95.60;;;;;;6155916;23;20520;-77
2021/06/18 08:37:08;;;;;;;42.33;38.70;;;28.90;95.60;;;;;;6167512;23;20405;-77
2021/06/18 08:39:36;;;;;;;37.90;34.80;;;28.90;95.60;;;;;;6155844;23;20460;-77
2021/06/18 08:42:05;;;;;;;37.27;34.07;;;28.80;95.60;;;;;;6155849;23;20413;-77
2021/06/18 08:44:33;;;;;;;38.15;34.95;;;28.90;95.70;;;;;;6155075;23;20506;-77
2021/06/18 08:47:04;;;;;;;34.07;31.23;;;28.90;95.30;;;;;;6157844;23;20177;-78
2021/06/18 08:49:36;;;;;;;29.83;27.40;;;28.90;95.30;;;;;;6155868;23;20756;-78
2021/06/18 08:52:05;;;;;;;33.53;30.83;;;28.90;95.40;;;;;;6155817;23;20444;-78
2021/06/18 08:54:42;;;;;;;34.20;30.90;;;28.90;95.50;;;;;;6155915;23;20915;-77
2021/06/18 08:57:12;;;;;;;31.20;28.40;;;29.00;95.50;;;;;;6155990;23;20937;-77
2021/06/18 08:59:41;;;;;;;31.47;28.97;;;29.10;95.60;;;;;;6155715;23;20944;-78
2021/06/18 09:02:11;;;;;;;32.90;30.40;;;29.10;95.60;;;;;;6155716;23;20444;-78
2021/06/18 09:05:04;;;;;;;35.20;32.03;;;29.20;95.50;;;;;;6155951;23;20467;-78
2021/06/18 09:07:49;;;;;;;31.33;28.57;;;29.30;95.40;;;;;;6155562;23;20463;-78
2021/06/18 09:10:25;;;;;;;31.03;28.50;;;29.30;95.30;;;;;;6157657;23;20408;-78
2021/06/18 09:13:11;;;;;;;34.37;31.17;;;29.30;95.20;;;;;;6155731;23;20472;-77
2021/06/18 09:15:43;;;;;;;39.60;36.10;;;29.30;95.20;;;;;;6155715;23;20420;-78
2021/06/18 09:18:31;;;;;;;36.30;33.07;;;29.30;95.20;;;;;;6155554;23;20437;-78
2021/06/18 09:21:30;;;;;;;38.20;35.15;;;29.20;95.20;;;;;;6155250;23;20416;-77
2021/06/18 09:23:58;;;;;;;34.13;31.20;;;29.20;95.00;;;;;;6077143;23;20168;-77
2021/06/18 09:26:29;;;;;;;34.30;31.50;;;29.10;95.10;;;;;;6130526;23;20448;-77
2021/06/18 09:29:09;;;;;;;31.87;29.03;;;29.10;95.10;;;;;;6167492;23;20452;-77
2021/06/18 09:31:41;;;;;;;36.47;33.53;;;29.10;95.30;;;;;;6155470;23;20460;-77
2021/06/18 09:34:11;;;;;;;35.17;32.43;;;29.10;95.20;;;;;;6155511;23;20780;-78
2021/06/18 09:36:41;;;;;;;37.38;34.35;;;29.20;95.20;;;;;;6155195;23;20424;-77
2021/06/18 09:39:13;;;;;;;37.37;34.37;;;29.20;95.20;;;;;;6166215;23;20219;-78
2021/06/18 09:41:43;;;;;;;36.90;33.50;;;29.20;95.20;;;;;;6156842;23;20436;-78
2021/06/18 09:44:15;;;;;;;33.53;30.77;;;29.30;95.10;;;;;;6155412;23;20884;-78
2021/06/18 09:46:47;;;;;;;34.57;31.77;;;29.30;95.20;;;;;;6155499;23;20449;-77
2021/06/18 09:49:38;;;;;;;35.77;32.97;;;29.30;95.20;;;;;;6157132;23;20425;-78
2021/06/18 09:52:08;;;;;;;34.80;32.07;;;29.30;95.00;;;;;;6167399;23;20964;-77
2021/06/18 09:54:41;;;;;;;32.13;29.23;;;29.40;95.00;;;;;;6166661;23;20421;-77
2021/06/18 09:57:13;;;;;;;24.00;22.27;;;29.30;94.90;;;;;;6155258;23;20421;-78
2021/06/18 09:59:49;;;;;;;25.40;23.50;;;29.30;95.00;;;;;;6157124;23;20480;-77
2021/06/18 10:02:19;;;;;;;25.00;22.90;;;29.40;94.80;;;;;;6155469;23;20451;-78
2021/06/18 10:04:51;;;;;;;23.90;21.90;;;29.40;94.60;;;;;;6157078;23;20409;-77
2021/06/18 10:07:27;;;;;;;22.80;21.10;;;29.50;94.40;;;;;;6155315;23;20409;-78
2021/06/18 10:10:01;;;;;;;24.33;22.43;;;29.50;94.30;;;;;;6166648;23;20425;-77
2021/06/18 10:12:29;;;;;;;25.67;23.67;;;29.50;94.20;;;;;;6155013;23;20444;-78
2021/06/18 10:15:05;;;;;;;24.30;22.33;;;29.50;94.10;;;;;;6155193;23;20784;-78
2021/06/18 10:17:33;;;;;;;20.33;18.90;;;29.50;94.00;;;;;;6166802;23;20377;-77
2021/06/18 10:20:05;;;;;;;21.30;19.37;;;29.60;93.90;;;;;;6155088;23;20409;-77
2021/06/18 10:22:38;;;;;;;14.93;13.50;;;29.60;93.70;;;;;;6166527;23;20413;-77
2021/06/18 10:25:10;;;;;;;11.60;10.60;;;29.60;93.60;;;;;;6155133;23;20409;-78
2021/06/18 10:27:46;;;;;;;14.43;13.13;;;29.70;93.30;;;;;;6154849;23;20923;-77
2021/06/18 10:30:29;;;;;;;13.77;12.68;;;29.70;93.10;;;;;;6166110;23;20432;-77
2021/06/18 10:32:59;;;;;;;15.90;14.63;;;29.80;92.90;;;;;;6166841;23;20244;-77
2021/06/18 10:35:46;;;;;;;14.63;13.43;;;29.80;92.80;;;;;;6154775;23;20504;-77
2021/06/18 10:38:26;;;;;;;14.73;13.33;;;29.90;92.50;;;;;;6155519;23;20436;-77
2021/06/18 10:40:55;;;;;;;15.17;13.97;;;29.90;92.50;;;;;;6156522;23;20393;-77
2021/06/18 10:43:34;;;;;;;17.80;16.30;;;29.90;92.40;;;;;;6154802;23;20409;-77
2021/06/18 10:46:14;;;;;;;17.90;16.40;;;29.90;92.30;;;;;;6166325;23;20774;-77
2021/06/18 10:49:01;;;;;;;17.60;16.30;;;29.90;92.20;;;;;;6156084;23;20436;-77
2021/06/18 10:51:37;;;;;;;16.23;14.90;;;29.90;92.10;;;;;;6154055;23;20428;-77
2021/06/18 10:54:08;;;;;;;14.30;13.10;;;29.90;92.20;;;;;;6166913;23;20478;-77
2021/06/18 10:56:56;;;;;;;16.10;14.60;;;29.90;92.10;;;;;;6158405;23;20509;-78
2021/06/18 10:59:30;;;;;;;14.87;13.77;;;29.90;91.90;;;;;;6156412;23;20750;-77
2021/06/18 11:02:00;;;;;;;15.73;14.53;;;29.90;91.90;;;;;;6154691;23;20447;-77
2021/06/18 11:04:41;;;;;;;17.90;16.40;;;29.90;91.70;;;;;;6154743;23;20417;-78
2021/06/18 11:07:24;;;;;;;18.87;17.00;;;29.90;91.60;;;;;;6154650;23;20193;-78
2021/06/18 11:09:54;;;;;;;16.90;15.43;;;29.90;91.60;;;;;;6155329;23;20412;-77
2021/06/18 11:12:43;;;;;;;17.27;16.00;;;29.90;91.60;;;;;;6154537;23;20936;-77
2021/06/18 11:15:45;;;;;;;16.53;15.10;;;29.90;91.70;;;;;;6154788;23;20416;-77
2021/06/18 11:18:19;;;;;;;19.57;17.87;;;29.90;91.80;;;;;;6150909;23;20840;-77
2021/06/18 11:20:53;;;;;;;17.60;16.20;;;29.90;91.70;;;;;;6155864;23;20483;-77
2021/06/18 11:23:26;;;;;;;16.63;15.17;;;29.90;91.80;;;;;;6154548;23;20440;-77
2021/06/18 11:26:09;;;;;;;18.35;16.83;;;30.00;91.80;;;;;;6153151;23;20417;-77
2021/06/18 11:28:50;;;;;;;23.20;21.20;;;30.20;91.90;;;;;;6166045;23;20185;-77
2021/06/18 11:31:39;;;;;;;19.40;17.80;;;30.30;91.80;;;;;;6154799;23;20487;-77
2021/06/18 11:34:23;;;;;;;21.60;19.70;;;30.30;91.90;;;;;;6166672;23;20479;-77
2021/06/18 11:36:52;;;;;;;20.27;18.60;;;30.30;91.90;;;;;;6154523;23;20427;-77
2021/06/18 11:39:27;;;;;;;22.57;20.77;;;30.40;91.90;;;;;;6165777;23;20420;-77
2021/06/18 11:42:09;;;;;;;23.93;21.90;;;30.50;91.90;;;;;;6156281;23;20458;-77
2021/06/18 11:44:39;;;;;;;24.37;22.47;;;30.40;91.90;;;;;;6154471;23;20444;-77
2021/06/18 11:47:08;;;;;;;21.20;19.60;;;30.50;91.90;;;;;;6154480;23;20405;-77
2021/06/18 11:49:43;;;;;;;24.13;22.23;;;30.50;92.00;;;;;;6154275;23;20565;-77
2021/06/18 11:52:12;;;;;;;22.73;20.73;;;30.50;92.10;;;;;;6154182;23;20495;-77
2021/06/18 11:54:48;;;;;;;25.97;23.93;;;30.60;92.10;;;;;;6165952;23;20705;-77
2021/06/18 11:57:20;;;;;;;27.73;25.33;;;30.60;92.10;;;;;;6154218;23;20511;-77
2021/06/18 11:59:55;;;;;;;24.47;22.30;;;30.60;92.10;;;;;;6154188;23;20533;-77
2021/06/18 12:02:25;;;;;;;23.80;21.90;;;30.60;92.30;;;;;;6167239;23;20473;-77
2021/06/18 12:05:12;;;;;;;25.00;23.00;;;30.70;92.30;;;;;;6156376;23;20511;-77
2021/06/18 12:07:41;;;;;;;22.97;21.17;;;30.80;92.30;;;;;;6167687;23;20413;-77
2021/06/18 12:10:23;;;;;;;20.17;18.37;;;30.80;92.30;;;;;;6158115;23;20433;-76
2021/06/18 12:12:53;;;;;;;21.93;20.23;;;30.90;92.40;;;;;;6156180;23;20483;-77
2021/06/18 12:15:28;;;;;;;22.17;20.43;;;30.90;92.50;;;;;;6156215;23;20876;-77
2021/06/18 12:17:59;;;;;;;25.43;23.23;;;31.00;92.50;;;;;;6156182;23;20587;-77
2021/06/18 12:20:30;;;;;;;21.85;20.15;;;31.10;92.50;;;;;;6157204;23;20412;-77
2021/06/18 12:22:58;;;;;;;24.93;22.73;;;31.20;92.60;;;;;;6168058;23;20150;-77
2021/06/18 12:25:28;;;;;;;24.80;22.90;;;31.30;92.50;;;;;;6156147;23;20903;-77
2021/06/18 12:27:59;;;;;;;24.00;22.00;;;31.30;92.40;;;;;;6156102;23;20831;-77
2021/06/18 12:30:31;;;;;;;22.03;20.13;;;31.40;92.40;;;;;;6156127;23;20405;-77
2021/06/18 12:33:00;;;;;;;21.23;19.50;;;31.40;92.40;;;;;;6156019;23;20436;-77
2021/06/18 12:35:37;;;;;;;22.40;20.43;;;31.40;92.70;;;;;;6167461;23;20399;-77
2021/06/18 12:38:07;;;;;;;23.73;21.73;;;31.40;92.40;;;;;;6155943;23;20512;-77
2021/06/18 12:40:37;;;;;;;19.87;18.47;;;31.40;92.30;;;;;;6155846;23;20491;-77
2021/06/18 12:43:08;;;;;;;21.17;19.60;;;31.40;92.30;;;;;;6156097;23;20440;-77
2021/06/18 12:45:47;;;;;;;21.70;19.90;;;31.50;92.30;;;;;;6155977;23;20435;-77
2021/06/18 12:48:18;;;;;;;23.17;21.47;;;31.50;92.20;;;;;;6167357;23;20453;-77
2021/06/18 12:50:49;;;;;;;24.33;22.57;;;31.50;92.20;;;;;;6167659;23;20389;-77